createdAt,value
2023-04-15T00:00:56.455Z,7.07
2023-04-15T00:03:23.311Z,7.10
2023-04-15T00:05:49.992Z,7.18
2023-04-15T00:08:16.463Z,7.08
2023-04-15T00:10:44.439Z,7.20
2023-04-15T00:13:10.943Z,7.17
2023-04-15T00:15:37.917Z,6.98
2023-04-15T00:18:04.725Z,7.12
2023-04-15T00:20:31.591Z,7.14
2023-04-15T00:22:58.984Z,7.40
2023-04-15T00:25:25.390Z,7.37
2023-04-15T00:27:51.857Z,7.05
2023-04-15T00:30:18.716Z,7.07
2023-04-15T00:32:45.260Z,7.08
2023-04-15T00:35:11.739Z,7.00
2023-04-15T00:37:38.243Z,7.05
2023-04-15T00:40:06.581Z,7.14
2023-04-15T00:42:33.328Z,7.08
2023-04-15T00:44:59.768Z,7.25
2023-04-15T00:47:26.404Z,7.31
2023-04-15T00:49:53.040Z,7.02
2023-04-15T00:52:19.498Z,7.22
2023-04-15T00:54:45.924Z,7.18
2023-04-15T00:57:12.500Z,7.25
2023-04-15T00:59:38.936Z,7.14
2023-04-15T01:02:05.492Z,6.99
2023-04-15T01:04:32.275Z,6.97
2023-04-15T01:06:58.870Z,7.04
2023-04-15T01:09:25.277Z,7.09
2023-04-15T01:11:52.004Z,7.03
2023-04-15T01:14:18.444Z,7.10
2023-04-15T01:16:45.549Z,7.10
2023-04-15T01:19:12.361Z,7.25
2023-04-15T01:21:39.901Z,7.10
2023-04-15T01:24:06.407Z,7.04
2023-04-15T01:26:32.849Z,7.09
2023-04-15T01:28:59.435Z,7.02
2023-04-15T01:31:26.177Z,6.94
2023-04-15T01:33:53.017Z,6.97
2023-04-15T01:36:19.813Z,7.01
2023-04-15T01:38:46.576Z,6.99
2023-04-15T01:41:12.998Z,6.99
2023-04-15T01:43:39.462Z,6.97
2023-04-15T01:46:06.405Z,7.08
2023-04-15T01:48:33.616Z,6.99
2023-04-15T01:51:00.217Z,7.06
2023-04-15T01:53:26.673Z,6.96
2023-04-15T01:55:53.124Z,7.07
2023-04-15T01:58:19.591Z,6.98
2023-04-15T02:00:46.264Z,7.03
2023-04-15T02:03:12.776Z,7.03
2023-04-15T02:05:39.270Z,7.04
2023-04-15T02:08:06.265Z,7.18
2023-04-15T02:10:32.704Z,7.15
2023-04-15T02:12:59.156Z,6.96
2023-04-15T02:15:25.596Z,7.11
2023-04-15T02:17:55.441Z,7.18
2023-04-15T02:20:22.688Z,7.22
2023-04-15T02:22:49.177Z,7.28
2023-04-15T02:25:17.075Z,7.16
2023-04-15T02:27:44.552Z,7.21
2023-04-15T02:30:11.003Z,7.05
2023-04-15T02:32:38.386Z,7.15
2023-04-15T02:35:05.775Z,7.10
2023-04-15T02:37:32.233Z,7.09
2023-04-15T02:39:58.748Z,7.07
2023-04-15T02:42:27.956Z,6.88
2023-04-15T02:44:55.228Z,7.05
2023-04-15T02:47:21.747Z,7.23
2023-04-15T02:49:48.185Z,7.23
2023-04-15T02:52:14.624Z,7.18
2023-04-15T02:54:41.053Z,7.33
2023-04-15T02:57:07.600Z,7.20
2023-04-15T02:59:34.016Z,7.12
2023-04-15T03:02:03.923Z,7.13
2023-04-15T03:04:31.057Z,7.08
2023-04-15T03:06:57.720Z,7.03
2023-04-15T03:09:24.159Z,7.27
2023-04-15T03:11:52.601Z,7.21
2023-04-15T03:14:19.008Z,7.12
2023-04-15T03:16:45.421Z,7.30
2023-04-15T03:19:11.861Z,7.31
2023-04-15T03:21:38.331Z,7.11
2023-04-15T03:24:04.746Z,7.25
2023-04-15T03:26:31.190Z,7.24
2023-04-15T03:28:57.623Z,7.15
2023-04-15T03:31:24.168Z,7.17
2023-04-15T03:33:50.838Z,7.36
2023-04-15T03:36:17.476Z,7.12
2023-04-15T03:38:43.963Z,7.03
2023-04-15T03:41:10.413Z,7.08
2023-04-15T03:43:36.861Z,7.04
2023-04-15T03:46:03.356Z,7.26
2023-04-15T03:48:29.789Z,7.19
2023-04-15T03:50:56.359Z,7.14
2023-04-15T03:53:22.795Z,7.10
2023-04-15T03:55:49.212Z,7.22
2023-04-15T03:58:15.663Z,7.34
2023-04-15T04:00:42.661Z,7.23
2023-04-15T04:03:09.319Z,7.26
2023-04-15T04:05:39.144Z,7.19
2023-04-15T04:08:05.816Z,7.17
2023-04-15T04:10:32.267Z,7.39
2023-04-15T04:12:58.712Z,7.44
2023-04-15T04:15:25.131Z,7.29
2023-04-15T04:17:51.718Z,7.08
2023-04-15T04:20:18.188Z,7.18
2023-04-15T04:22:44.706Z,7.06
2023-04-15T04:25:11.410Z,7.04
2023-04-15T04:27:37.937Z,7.16
2023-04-15T04:30:04.437Z,7.31
2023-04-15T04:32:30.889Z,7.23
2023-04-15T04:34:57.310Z,7.29
2023-04-15T04:37:24.827Z,7.38
2023-04-15T04:39:51.367Z,7.29
2023-04-15T04:42:17.785Z,7.40
2023-04-15T04:44:44.217Z,7.20
2023-04-15T04:47:10.666Z,7.21
2023-04-15T04:49:37.107Z,7.22
2023-04-15T04:52:03.612Z,7.33
2023-04-15T04:54:31.392Z,7.51
2023-04-15T04:56:58.092Z,7.65
2023-04-15T04:59:24.512Z,7.51
2023-04-15T05:01:50.931Z,7.36
2023-04-15T05:04:17.432Z,7.50
2023-04-15T05:06:43.997Z,7.65
2023-04-15T05:09:10.750Z,7.56
2023-04-15T05:11:37.205Z,7.67
2023-04-15T05:14:03.632Z,7.74
2023-04-15T05:16:30.060Z,7.86
2023-04-15T05:18:56.936Z,7.92
2023-04-15T05:21:23.378Z,7.62
2023-04-15T05:23:49.783Z,7.88
2023-04-15T05:26:16.317Z,7.92
2023-04-15T05:28:42.783Z,7.88
2023-04-15T05:31:09.232Z,7.96
2023-04-15T05:33:35.691Z,7.93
2023-04-15T05:36:02.153Z,7.95
2023-04-15T05:38:28.619Z,8.03
2023-04-15T05:40:55.020Z,8.05
2023-04-15T05:43:21.779Z,8.17
2023-04-15T05:45:48.240Z,8.20
2023-04-15T05:48:14.749Z,8.25
2023-04-15T05:50:41.189Z,8.23
2023-04-15T05:53:08.466Z,8.22
2023-04-15T05:55:34.979Z,8.29
2023-04-15T05:58:01.475Z,8.33
2023-04-15T06:00:27.988Z,8.32
2023-04-15T06:02:55.189Z,8.32
2023-04-15T06:05:21.656Z,8.18
2023-04-15T06:07:48.733Z,8.30
2023-04-15T06:10:15.319Z,8.30
2023-04-15T06:12:41.818Z,8.31
2023-04-15T06:15:10.487Z,8.33
2023-04-15T06:17:37.330Z,8.30
2023-04-15T06:20:03.837Z,8.40
2023-04-15T06:22:30.257Z,8.45
2023-04-15T06:24:56.724Z,8.37
2023-04-15T06:27:23.387Z,8.44
2023-04-15T06:29:49.863Z,8.44
2023-04-15T06:32:16.483Z,8.40
2023-04-15T06:34:42.918Z,8.44
2023-04-15T06:37:11.322Z,8.37
2023-04-15T06:39:38.544Z,8.52
2023-04-15T06:42:05.090Z,8.68
2023-04-15T06:44:33.782Z,8.64
2023-04-15T06:47:00.536Z,8.79
2023-04-15T06:49:26.984Z,8.83
2023-04-15T06:51:53.445Z,8.64
2023-04-15T06:54:20.065Z,8.86
2023-04-15T06:56:46.514Z,8.64
2023-04-15T06:59:13.223Z,8.78
2023-04-15T07:01:39.656Z,8.82
2023-04-15T07:04:06.397Z,8.94
2023-04-15T07:06:33.106Z,9.09
2023-04-15T07:08:59.867Z,9.09
2023-04-15T07:11:26.695Z,9.19
2023-04-15T07:13:53.198Z,9.20
2023-04-15T07:16:19.740Z,9.16
